Norwegian Jewel — C6TX6 — position and weather

sailwx.info

Track history (hours):
 
Tides and Currents Weather Stations Pressure Air Temp Water Temp Dewpoint Dewpoint Depression Visibility Wind Speed Wind Dir Waves Ship Positions

Norwegian Jewel

Last reported at 2017-Jul-26 11:00 UTC. Time now 2017-Jul-27 02:36 UTC.
Position N 58°42' W 135°06'.

Type: Ship. MMSI: 311827000.

Wind from 050 at 9 knots

Barometer 1011.0 mb
Air temperature 12.9 ° C
Visibility: greater than 10.8 NM
Water temperature 13.0 ° C

Date/timePositionNaut miles runAvg speedWind from/ knotsBaromVisibWave heightAir tempDewpointWater temp
2017-Jul-26 11:00N 58°42' W 135°06'2713.5 050 / 91011.010.8 12.9 13.0
2017-Jul-26 09:00N 58°18' W 134°42'61 7.7 080 / 101023.0 12.4 13.0
2017-Jul-26 01:00N 57°36' W 133°18'20 1.4 220 / 101014.010.8 11.8
2017-Jul-25 11:00N 57°30' W 132°42'16683.0 100 / 81017.0 5.4 10.5 12.0
2017-Jul-25 09:00N 54°54' W 134°24'115 5.2 170 / 121017.0 12.5 14.0
2017-Jul-24 11:00N 54°42' W 131°06'3015.1 070 / 71021.010.8 14.0 13.0
2017-Jul-24 09:00N 54°12' W 131°00'11816.8 350 / 141021.0 12.1 13.0
2017-Jul-24 02:00N 52°18' W 130°12'1919.4 360 / 71025.010.8 13.913.414.0
2017-Jul-24 01:00N 52°00' W 130°00'5120.2 010 / 101025.010.8 13.913.414.0
2017-Jul-23 22:27N 51°16' W 129°18'919.9
2017-Jul-23 22:00N 51°14' W 129°04'9635.4
2017-Jul-23 22:00N 51°12' W 129°18'1837.4 360 / 251023.010.8 13.6 15.0
2017-Jul-23 21:30N 51°13' W 128°49'1019.7
2017-Jul-23 21:00N 51°11' W 128°34'1019.2
2017-Jul-23 20:30N 51°07' W 128°19'1218.4
2017-Jul-23 19:52N 51°03' W 128°02'718.7
2017-Jul-23 19:30N 51°01' W 127°52'612.8
2017-Jul-23 19:00N 50°57' W 127°43'918.5
2017-Jul-23 18:30N 50°52' W 127°32'918.6
2017-Jul-23 18:00N 50°48' W 127°18'1018.8
2017-Jul-23 17:30N 50°44' W 127°05'918.4
2017-Jul-23 16:59N 50°40' W 126°51'4415.8
2017-Jul-23 14:10N 50°23' W 125°47'917.7
2017-Jul-23 13:40N 50°22' W 125°33'417.6
2017-Jul-23 13:26N 50°20' W 125°27'614.8
2017-Jul-23 13:00N 50°14' W 125°23'714.6
2017-Jul-23 12:30N 50°07' W 125°20'611.1
2017-Jul-23 12:00N 50°03' W 125°15'4 7.4
2017-Jul-23 11:30N 49°60' W 125°12'917.5
2017-Jul-23 11:00N 49°54' W 125°03'1019.7
2017-Jul-23 10:30N 49°47' W 124°52'1019.5
2017-Jul-23 10:00N 49°40' W 124°41'947023.5
2017-Jul-23 10:00N 48°30' W 123°06'84171.3 010 / 261017.010.8 15.0 14.0
2017-Jul-23 09:30N 49°32' W 124°31'918.2
2017-Jul-23 09:00N 49°26' W 124°21'122246.9
2017-Jul-23 09:00N 49°18' W 124°06'4 9.1 360 / 101021.0 17.2 14.0
2017-Jul-23 08:30N 49°22' W 124°09'917.1
2017-Jul-23 08:00N 49°17' W 123°58'6 8.5
2017-Jul-23 07:15N 49°13' W 123°51'311.6
2017-Jul-23 07:00N 49°14' W 123°46'815.7
2017-Jul-23 06:30N 49°10' W 123°35'815.9
2017-Jul-23 06:00N 49°07' W 123°24'814.9
2017-Jul-23 05:30N 49°01' W 123°17'815.1
2017-Jul-23 05:00N 48°56' W 123°08'815.7
2017-Jul-23 04:30N 48°50' W 123°01'612.0
2017-Jul-23 04:01N 48°45' W 123°05'815.4
2017-Jul-23 03:31N 48°40' W 123°15'1019.0
2017-Jul-23 03:01N 48°31' W 123°11'1019.8
2017-Jul-23 02:31N 48°24' W 123°02'1019.5
2017-Jul-23 02:00N 48°16' W 122°53'919.2
2017-Jul-23 01:31N 48°09' W 122°43'1217.8
2017-Jul-23 00:51N 47°59' W 122°35'717.6
2017-Jul-23 00:28N 47°54' W 122°28'918.9
2017-Jul-23 00:00N 47°45' W 122°26'816.0
2017-Jul-22 23:30N 47°37' W 122°25'3 4.7
2017-Jul-22 22:55N 47°37' W 122°21'0 0.0
2017-Jul-22 22:25N 47°37' W 122°21'0 0.0
2017-Jul-22 21:58N 47°37' W 122°21'0 0.0
2017-Jul-22 21:30N 47°37' W 122°21'0 0.0
2017-Jul-22 21:00N 47°37' W 122°21'0 0.0
2017-Jul-22 20:30N 47°37' W 122°21'0 0.0
2017-Jul-22 20:00N 47°37' W 122°21'0 0.0
2017-Jul-22 19:30N 47°37' W 122°21'0 0.0
2017-Jul-22 18:57N 47°37' W 122°21'0 0.0
2017-Jul-22 18:29N 47°37' W 122°21'0 0.0
2017-Jul-22 17:59N 47°37' W 122°21'0 0.0
2017-Jul-22 17:29N 47°37' W 122°21'0 0.0
2017-Jul-22 17:00N 47°37' W 122°21'0 0.0
2017-Jul-22 16:29N 47°37' W 122°21'0 0.0
2017-Jul-22 15:59N 47°37' W 122°21'0 0.0
2017-Jul-22 15:28N 47°37' W 122°21'0 0.0
2017-Jul-22 14:58N 47°37' W 122°21'0 0.0
2017-Jul-22 14:01N 47°37' W 122°21'0 0.0
2017-Jul-22 13:30N 47°37' W 122°21'0 0.0
2017-Jul-22 13:00N 47°37' W 122°21'477142994.5
2017-Jul-22 13:00N 53°42' W 130°24'477984.8 160 / 71020.010.8 19.4
2017-Jul-22 12:30N 47°37' W 122°21'3 5.9
2017-Jul-22 12:00N 47°37' W 122°25'5 9.1
2017-Jul-22 11:30N 47°41' W 122°28'5 9.7
2017-Jul-22 11:00N 47°46' W 122°27'5 9.8
2017-Jul-22 10:30N 47°51' W 122°29'5 9.7
2017-Jul-22 10:00N 47°55' W 122°31'45828413.5
2017-Jul-22 10:00N 53°42' W 130°24'453935.1 320 / 31019.010.8 14.5 14.0
2017-Jul-22 09:30N 47°59' W 122°36'610.2
2017-Jul-22 08:56N 48°04' W 122°39'1431.0
2017-Jul-22 08:29N 48°11' W 122°57'816.7
2017-Jul-22 08:00N 48°06' W 122°48'6252.4 100 / 71019.0 14.0 14.0
2017-Jul-22 07:58N 48°11' W 122°52'511.5
2017-Jul-22 07:30N 48°12' W 123°00'510.9
2017-Jul-22 07:00N 48°12' W 123°08'611.2
2017-Jul-22 06:30N 48°11' W 123°17'510.1
2017-Jul-22 05:59N 48°10' W 123°24'712.1
2017-Jul-22 05:25N 48°17' W 123°29'614.5
2017-Jul-22 05:01N 48°22' W 123°25'3 6.2
2017-Jul-22 04:30N 48°25' W 123°24'0 0.3
2017-Jul-22 03:43N 48°25' W 123°23'0 0.0
2017-Jul-22 03:25N 48°25' W 123°23'0 0.0
2017-Jul-22 02:49N 48°25' W 123°23'0 0.0
2017-Jul-22 02:31N 48°25' W 123°23'0 0.0
2017-Jul-22 01:24N 48°25' W 123°23'0 0.0
2017-Jul-22 00:24N 48°25' W 123°23'0 0.0
2017-Jul-21 23:59N 48°25' W 123°23'0 0.0
2017-Jul-21 23:08N 48°25' W 123°23'0 0.0
2017-Jul-21 22:59N 48°25' W 123°23'0 0.0
2017-Jul-21 22:29N 48°25' W 123°23'0 0.0
2017-Jul-21 21:59N 48°25' W 123°23'0 0.0
2017-Jul-21 21:25N 48°25' W 123°23'0 0.0
2017-Jul-21 21:00N 48°25' W 123°23'2 3.7
2017-Jul-21 20:30N 48°24' W 123°25'510.6
2017-Jul-21 20:01N 48°18' W 123°25'611.6
2017-Jul-21 19:31N 48°13' W 123°30'612.1
2017-Jul-21 19:00N 48°13' W 123°39'1019.1
2017-Jul-21 18:30N 48°13' W 123°53'1020.1
2017-Jul-21 18:00N 48°17' W 124°07'1020.0
2017-Jul-21 17:30N 48°21' W 124°20'1019.2
2017-Jul-21 17:00N 48°26' W 124°33'918.5
2017-Jul-21 16:30N 48°28' W 124°47'1019.3
2017-Jul-21 16:00N 48°29' W 125°01'918.5
2017-Jul-21 15:30N 48°32' W 125°15'1019.2
2017-Jul-21 15:00N 48°36' W 125°27'1019.4
2017-Jul-21 14:30N 48°41' W 125°40'919.0
2017-Jul-21 14:01N 48°46' W 125°53'918.2
2017-Jul-21 13:30N 48°51' W 126°04'1121.4
2017-Jul-21 13:00N 48°57' W 126°17'1121.8
2017-Jul-21 12:30N 49°04' W 126°30'1122.1
2017-Jul-21 12:00N 49°11' W 126°43'1122.8
2017-Jul-21 11:30N 49°18' W 126°56'1323.1
2017-Jul-21 10:57N 49°27' W 127°12'1515.8
2017-Jul-21 10:00N 49°36' W 127°30'4321.6 190 / 241017.0 5.4 14.3 15.0
2017-Jul-21 08:00N 50°06' W 128°18'14023.4 200 / 281016.0 14.2 14.0
2017-Jul-21 02:00N 51°42' W 131°00'3015.2 190 / 241016.010.8 14.013.314.0
2017-Jul-21 00:00N 52°06' W 131°30'4422.1 180 / 231017.010.8 13.212.514.0
2017-Jul-20 22:00N 52°42' W 132°12'16022.9 190 / 241014.010.8 13.2 15.0
2017-Jul-20 15:00N 55°06' W 134°12'1818.3 160 / 151014.010.8 11.610.914.0
2017-Jul-20 14:00N 55°24' W 134°18'1919.2 210 / 151014.010.8 13.612.913.0
2017-Jul-20 13:00N 55°42' W 134°30'2424.2 270 / 81014.010.8 11.911.413.0
2017-Jul-20 12:00N 56°06' W 134°24'9724.1 290 / 131013.010.8 12.2 13.0
2017-Jul-20 08:00N 54°30' W 134°42'29517.3 030 / 101023.0 13.9 13.0
2017-Jul-19 15:00N 59°24' W 135°18'37 9.1 190 / 13 0.1 11.0
2017-Jul-19 11:00N 58°48' W 135°06'3316.3 160 / 101016.010.8 12.4 13.0
2017-Jul-19 09:00N 58°18' W 134°42'61 7.7 120 / 91015.0 11.9 11.0
2017-Jul-19 01:00N 57°36' W 133°18'48 4.8 250 / 91016.010.8 13.6
2017-Jul-18 15:00N 58°12' W 134°18'5614.1 140 11.9
2017-Jul-18 11:00N 57°18' W 133°48'4120.5 100 / 111019.010.8 11.2 13.0
2017-Jul-18 09:00N 56°42' W 134°24'178 7.7 090 / 91020.0 12.0 11.0
2017-Jul-17 10:00N 54°24' W 131°06'9090.3 090 / 31024.010.8 13.1 13.0
2017-Jul-17 09:00N 55°54' W 130°54'28427.1 080 / 161025.0 11.3 13.0
2017-Jul-16 22:32N 51°16' W 129°18'419.5
2017-Jul-16 22:19N 51°15' W 129°12'619.8
2017-Jul-16 22:00N 51°14' W 129°02'1019.7
2017-Jul-16 21:31N 51°13' W 128°46'1019.8
2017-Jul-16 21:01N 51°11' W 128°31'13757.4
2017-Jul-16 21:00N 51°06' W 128°12'3 6.4 280 / 181024.0 14.0 11.0
2017-Jul-16 20:30N 51°08' W 128°16'1019.6
2017-Jul-16 20:00N 51°03' W 128°02'918.5
2017-Jul-16 19:30N 50°60' W 127°48'612.6
2017-Jul-16 19:00N 50°56' W 127°41'816.0
2017-Jul-16 18:30N 50°51' W 127°31'816.1
2017-Jul-16 18:00N 50°48' W 127°19'815.4
2017-Jul-16 17:30N 50°45' W 127°08'815.4
2017-Jul-16 17:00N 50°42' W 126°57'814.9
2017-Jul-16 16:29N 50°38' W 126°47'713.8
2017-Jul-16 16:01N 50°32' W 126°41'917.3
2017-Jul-16 15:29N 50°30' W 126°27'2617.4
2017-Jul-16 13:58N 50°23' W 125°47'918.8
2017-Jul-16 13:29N 50°22' W 125°33'714.8
2017-Jul-16 13:00N 50°17' W 125°24'817.3
2017-Jul-16 12:30N 50°09' W 125°21'510.6
2017-Jul-16 12:00N 50°05' W 125°16'611.8
2017-Jul-16 11:30N 49°60' W 125°12'815.7
2017-Jul-16 11:00N 49°54' W 125°04'  
Track history (hours):
 
Tides and Currents Weather Stations Pressure Air Temp Water Temp Dewpoint Dewpoint Depression Visibility Wind Speed Wind Dir Waves Ship Positions

Norwegian Jewel

Last reported at 2017-Jul-26 11:00 UTC. Time now 2017-Jul-27 02:36 UTC.
Position N 58°42' W 135°06'.

Type: Ship. MMSI: 311827000.

Wind from 050 at 9 knots

Barometer 1011.0 mb
Air temperature 12.9 ° C
Visibility: greater than 10.8 NM
Water temperature 13.0 ° C

Date/timePositionNaut miles runAvg speedWind from/ knotsBaromVisibWave heightAir tempDewpointWater temp
2017-Jul-26 11:00N 58°42' W 135°06'2713.5 050 / 91011.010.8 12.9 13.0
2017-Jul-26 09:00N 58°18' W 134°42'61 7.7 080 / 101023.0 12.4 13.0
2017-Jul-26 01:00N 57°36' W 133°18'20 1.4 220 / 101014.010.8 11.8
2017-Jul-25 11:00N 57°30' W 132°42'16683.0 100 / 81017.0 5.4 10.5 12.0
2017-Jul-25 09:00N 54°54' W 134°24'115 5.2 170 / 121017.0 12.5 14.0
2017-Jul-24 11:00N 54°42' W 131°06'3015.1 070 / 71021.010.8 14.0 13.0
2017-Jul-24 09:00N 54°12' W 131°00'11816.8 350 / 141021.0 12.1 13.0
2017-Jul-24 02:00N 52°18' W 130°12'1919.4 360 / 71025.010.8 13.913.414.0
2017-Jul-24 01:00N 52°00' W 130°00'5120.2 010 / 101025.010.8 13.913.414.0
2017-Jul-23 22:27N 51°16' W 129°18'919.9
2017-Jul-23 22:00N 51°14' W 129°04'9635.4
2017-Jul-23 22:00N 51°12' W 129°18'1837.4 360 / 251023.010.8 13.6 15.0
2017-Jul-23 21:30N 51°13' W 128°49'1019.7
2017-Jul-23 21:00N 51°11' W 128°34'1019.2
2017-Jul-23 20:30N 51°07' W 128°19'1218.4
2017-Jul-23 19:52N 51°03' W 128°02'718.7
2017-Jul-23 19:30N 51°01' W 127°52'612.8
2017-Jul-23 19:00N 50°57' W 127°43'918.5
2017-Jul-23 18:30N 50°52' W 127°32'918.6
2017-Jul-23 18:00N 50°48' W 127°18'1018.8
2017-Jul-23 17:30N 50°44' W 127°05'918.4
2017-Jul-23 16:59N 50°40' W 126°51'4415.8
2017-Jul-23 14:10N 50°23' W 125°47'917.7
2017-Jul-23 13:40N 50°22' W 125°33'417.6
2017-Jul-23 13:26N 50°20' W 125°27'614.8
2017-Jul-23 13:00N 50°14' W 125°23'714.6
2017-Jul-23 12:30N 50°07' W 125°20'611.1
2017-Jul-23 12:00N 50°03' W 125°15'4 7.4
2017-Jul-23 11:30N 49°60' W 125°12'917.5
2017-Jul-23 11:00N 49°54' W 125°03'1019.7
2017-Jul-23 10:30N 49°47' W 124°52'1019.5
2017-Jul-23 10:00N 49°40' W 124°41'947023.5
2017-Jul-23 10:00N 48°30' W 123°06'84171.3 010 / 261017.010.8 15.0 14.0
2017-Jul-23 09:30N 49°32' W 124°31'918.2
2017-Jul-23 09:00N 49°26' W 124°21'122246.9
2017-Jul-23 09:00N 49°18' W 124°06'4 9.1 360 / 101021.0 17.2 14.0
2017-Jul-23 08:30N 49°22' W 124°09'917.1
2017-Jul-23 08:00N 49°17' W 123°58'6 8.5
2017-Jul-23 07:15N 49°13' W 123°51'311.6
2017-Jul-23 07:00N 49°14' W 123°46'815.7
2017-Jul-23 06:30N 49°10' W 123°35'815.9
2017-Jul-23 06:00N 49°07' W 123°24'814.9
2017-Jul-23 05:30N 49°01' W 123°17'815.1
2017-Jul-23 05:00N 48°56' W 123°08'815.7
2017-Jul-23 04:30N 48°50' W 123°01'612.0
2017-Jul-23 04:01N 48°45' W 123°05'815.4
2017-Jul-23 03:31N 48°40' W 123°15'1019.0
2017-Jul-23 03:01N 48°31' W 123°11'1019.8
2017-Jul-23 02:31N 48°24' W 123°02'1019.5
2017-Jul-23 02:00N 48°16' W 122°53'919.2
2017-Jul-23 01:31N 48°09' W 122°43'1217.8
2017-Jul-23 00:51N 47°59' W 122°35'717.6
2017-Jul-23 00:28N 47°54' W 122°28'918.9
2017-Jul-23 00:00N 47°45' W 122°26'816.0
2017-Jul-22 23:30N 47°37' W 122°25'3 4.7
2017-Jul-22 22:55N 47°37' W 122°21'0 0.0
2017-Jul-22 22:25N 47°37' W 122°21'0 0.0
2017-Jul-22 21:58N 47°37' W 122°21'0 0.0
2017-Jul-22 21:30N 47°37' W 122°21'0 0.0
2017-Jul-22 21:00N 47°37' W 122°21'0 0.0
2017-Jul-22 20:30N 47°37' W 122°21'0 0.0
2017-Jul-22 20:00N 47°37' W 122°21'0 0.0
2017-Jul-22 19:30N 47°37' W 122°21'0 0.0
2017-Jul-22 18:57N 47°37' W 122°21'0 0.0
2017-Jul-22 18:29N 47°37' W 122°21'0 0.0
2017-Jul-22 17:59N 47°37' W 122°21'0 0.0
2017-Jul-22 17:29N 47°37' W 122°21'0 0.0
2017-Jul-22 17:00N 47°37' W 122°21'0 0.0
2017-Jul-22 16:29N 47°37' W 122°21'0 0.0
2017-Jul-22 15:59N 47°37' W 122°21'0 0.0
2017-Jul-22 15:28N 47°37' W 122°21'0 0.0
2017-Jul-22 14:58N 47°37' W 122°21'0 0.0
2017-Jul-22 14:01N 47°37' W 122°21'0 0.0
2017-Jul-22 13:30N 47°37' W 122°21'0 0.0
2017-Jul-22 13:00N 47°37' W 122°21'477142994.5
2017-Jul-22 13:00N 53°42' W 130°24'477984.8 160 / 71020.010.8 19.4
2017-Jul-22 12:30N 47°37' W 122°21'3 5.9
2017-Jul-22 12:00N 47°37' W 122°25'5 9.1
2017-Jul-22 11:30N 47°41' W 122°28'5 9.7
2017-Jul-22 11:00N 47°46' W 122°27'5 9.8
2017-Jul-22 10:30N 47°51' W 122°29'5 9.7
2017-Jul-22 10:00N 47°55' W 122°31'45828413.5
2017-Jul-22 10:00N 53°42' W 130°24'453935.1 320 / 31019.010.8 14.5 14.0
2017-Jul-22 09:30N 47°59' W 122°36'610.2
2017-Jul-22 08:56N 48°04' W 122°39'1431.0
2017-Jul-22 08:29N 48°11' W 122°57'816.7
2017-Jul-22 08:00N 48°06' W 122°48'6252.4 100 / 71019.0 14.0 14.0
2017-Jul-22 07:58N 48°11' W 122°52'511.5
2017-Jul-22 07:30N 48°12' W 123°00'510.9
2017-Jul-22 07:00N 48°12' W 123°08'611.2
2017-Jul-22 06:30N 48°11' W 123°17'510.1
2017-Jul-22 05:59N 48°10' W 123°24'712.1
2017-Jul-22 05:25N 48°17' W 123°29'614.5
2017-Jul-22 05:01N 48°22' W 123°25'3 6.2
2017-Jul-22 04:30N 48°25' W 123°24'0 0.3
2017-Jul-22 03:43N 48°25' W 123°23'0 0.0
2017-Jul-22 03:25N 48°25' W 123°23'0 0.0
2017-Jul-22 02:49N 48°25' W 123°23'0 0.0
2017-Jul-22 02:31N 48°25' W 123°23'0 0.0
2017-Jul-22 01:24N 48°25' W 123°23'0 0.0
2017-Jul-22 00:24N 48°25' W 123°23'0 0.0
2017-Jul-21 23:59N 48°25' W 123°23'0 0.0
2017-Jul-21 23:08N 48°25' W 123°23'0 0.0
2017-Jul-21 22:59N 48°25' W 123°23'0 0.0
2017-Jul-21 22:29N 48°25' W 123°23'0 0.0
2017-Jul-21 21:59N 48°25' W 123°23'0 0.0
2017-Jul-21 21:25N 48°25' W 123°23'0 0.0
2017-Jul-21 21:00N 48°25' W 123°23'2 3.7
2017-Jul-21 20:30N 48°24' W 123°25'510.6
2017-Jul-21 20:01N 48°18' W 123°25'611.6
2017-Jul-21 19:31N 48°13' W 123°30'612.1
2017-Jul-21 19:00N 48°13' W 123°39'1019.1
2017-Jul-21 18:30N 48°13' W 123°53'1020.1
2017-Jul-21 18:00N 48°17' W 124°07'1020.0
2017-Jul-21 17:30N 48°21' W 124°20'1019.2
2017-Jul-21 17:00N 48°26' W 124°33'918.5
2017-Jul-21 16:30N 48°28' W 124°47'1019.3
2017-Jul-21 16:00N 48°29' W 125°01'918.5
2017-Jul-21 15:30N 48°32' W 125°15'1019.2
2017-Jul-21 15:00N 48°36' W 125°27'1019.4
2017-Jul-21 14:30N 48°41' W 125°40'919.0
2017-Jul-21 14:01N 48°46' W 125°53'918.2
2017-Jul-21 13:30N 48°51' W 126°04'1121.4
2017-Jul-21 13:00N 48°57' W 126°17'1121.8
2017-Jul-21 12:30N 49°04' W 126°30'1122.1
2017-Jul-21 12:00N 49°11' W 126°43'1122.8
2017-Jul-21 11:30N 49°18' W 126°56'1323.1
2017-Jul-21 10:57N 49°27' W 127°12'1515.8
2017-Jul-21 10:00N 49°36' W 127°30'4321.6 190 / 241017.0 5.4 14.3 15.0
2017-Jul-21 08:00N 50°06' W 128°18'14023.4 200 / 281016.0 14.2 14.0
2017-Jul-21 02:00N 51°42' W 131°00'3015.2 190 / 241016.010.8 14.013.314.0
2017-Jul-21 00:00N 52°06' W 131°30'4422.1 180 / 231017.010.8 13.212.514.0
2017-Jul-20 22:00N 52°42' W 132°12'16022.9 190 / 241014.010.8 13.2 15.0
2017-Jul-20 15:00N 55°06' W 134°12'1818.3 160 / 151014.010.8 11.610.914.0
2017-Jul-20 14:00N 55°24' W 134°18'1919.2 210 / 151014.010.8 13.612.913.0
2017-Jul-20 13:00N 55°42' W 134°30'2424.2 270 / 81014.010.8 11.911.413.0
2017-Jul-20 12:00N 56°06' W 134°24'9724.1 290 / 131013.010.8 12.2 13.0
2017-Jul-20 08:00N 54°30' W 134°42'29517.3 030 / 101023.0 13.9 13.0
2017-Jul-19 15:00N 59°24' W 135°18'37 9.1 190 / 13 0.1 11.0
2017-Jul-19 11:00N 58°48' W 135°06'3316.3 160 / 101016.010.8 12.4 13.0
2017-Jul-19 09:00N 58°18' W 134°42'61 7.7 120 / 91015.0 11.9 11.0
2017-Jul-19 01:00N 57°36' W 133°18'48 4.8 250 / 91016.010.8 13.6
2017-Jul-18 15:00N 58°12' W 134°18'5614.1 140 11.9
2017-Jul-18 11:00N 57°18' W 133°48'4120.5 100 / 111019.010.8 11.2 13.0
2017-Jul-18 09:00N 56°42' W 134°24'178 7.7 090 / 91020.0 12.0 11.0
2017-Jul-17 10:00N 54°24' W 131°06'9090.3 090 / 31024.010.8 13.1 13.0
2017-Jul-17 09:00N 55°54' W 130°54'28427.1 080 / 161025.0 11.3 13.0
2017-Jul-16 22:32N 51°16' W 129°18'419.5
2017-Jul-16 22:19N 51°15' W 129°12'619.8
2017-Jul-16 22:00N 51°14' W 129°02'1019.7
2017-Jul-16 21:31N 51°13' W 128°46'1019.8
2017-Jul-16 21:01N 51°11' W 128°31'13757.4
2017-Jul-16 21:00N 51°06' W 128°12'3 6.4 280 / 181024.0 14.0 11.0
2017-Jul-16 20:30N 51°08' W 128°16'1019.6
2017-Jul-16 20:00N 51°03' W 128°02'918.5
2017-Jul-16 19:30N 50°60' W 127°48'612.6
2017-Jul-16 19:00N 50°56' W 127°41'816.0
2017-Jul-16 18:30N 50°51' W 127°31'816.1
2017-Jul-16 18:00N 50°48' W 127°19'815.4
2017-Jul-16 17:30N 50°45' W 127°08'815.4
2017-Jul-16 17:00N 50°42' W 126°57'814.9
2017-Jul-16 16:29N 50°38' W 126°47'713.8
2017-Jul-16 16:01N 50°32' W 126°41'917.3
2017-Jul-16 15:29N 50°30' W 126°27'2617.4
2017-Jul-16 13:58N 50°23' W 125°47'918.8
2017-Jul-16 13:29N 50°22' W 125°33'714.8
2017-Jul-16 13:00N 50°17' W 125°24'817.3
2017-Jul-16 12:30N 50°09' W 125°21'510.6
2017-Jul-16 12:00N 50°05' W 125°16'611.8
2017-Jul-16 11:30N 49°60' W 125°12'815.7
2017-Jul-16 11:00N 49°54' W 125°04'  

Dump ship's entire track history